Circle Line Brooklyn — WDE8160 — position and weather

sailwx.info

Track history (hours):
 
Tides and Currents Weather Stations Pressure Air Temp Water Temp Dewpoint Dewpoint Depression Visibility Wind Speed Wind Dir Waves Ship Positions

Circle Line Brooklyn

Owner: Circle Line Sight Seeing Yachts Inc., New York, NY. More information available from US FCC via Universal Licensing System and Coast Guard Vessel Documentation Center.

Last reported at 2018-Jun-21 17:43 UTC. Time now 2018-Jun-21 23:57 UTC.
Position N 40°43' W 074°01'.

Length 47 m; draft 2.1 m.

Type: Passenger vessel. MMSI: 367402250.

Date/timePositionNaut miles runAvg speedWind from/ knotsBaromVisibWave heightAir tempDewpointWater temp
2018-Jun-21 17:43N 40°43' W 074°01'2 7.6
2018-Jun-21 17:29N 40°43' W 073°59'3 6.0
2018-Jun-21 16:59N 40°41' W 074°03'3 1.6
2018-Jun-21 15:17N 40°44' W 074°01'2 5.6
2018-Jun-21 14:56N 40°42' W 074°02'2 0.0
2018-Jun-19 19:20N 40°44' W 074°01'2 7.0
2018-Jun-19 19:00N 40°43' W 073°58'1 1.2
2018-Jun-19 18:19N 40°42' W 073°59'3 8.3
2018-Jun-19 17:59N 40°42' W 074°02'3 0.9
2018-Jun-19 14:46N 40°42' W 073°59'312.9
2018-Jun-19 14:30N 40°41' W 074°03'2 0.2
2018-Jun-19 00:40N 40°43' W 074°02'211.1
2018-Jun-19 00:28N 40°41' W 074°02'3 4.2
2018-Jun-18 23:41N 40°43' W 073°58'211.1
2018-Jun-18 23:30N 40°42' W 074°01'2 0.6
2018-Jun-18 20:45N 40°43' W 074°01'2 9.1
2018-Jun-18 20:30N 40°43' W 073°59'4 7.1
2018-Jun-18 20:00N 40°41' W 074°03'2 1.1
2018-Jun-18 17:54N 40°43' W 074°01'2 2.2
2018-Jun-18 16:51N 40°43' W 073°58'3 9.7
2018-Jun-18 16:30N 40°42' W 074°02'2 0.1
2018-Jun-17 18:18N 40°42' W 074°00'1 5.0
2018-Jun-17 18:01N 40°42' W 074°02'1 0.2
2018-Jun-17 14:41N 40°42' W 074°01'1 3.2
2018-Jun-17 14:28N 40°42' W 074°02'1 0.1
2018-Jun-17 03:19N 40°43' W 074°01'2 4.2
2018-Jun-17 02:56N 40°43' W 073°59'2 4.6
2018-Jun-17 02:30N 40°42' W 074°01'2 4.2
2018-Jun-17 02:00N 40°44' W 074°01'0 0.0
2018-Jun-16 20:45N 40°44' W 074°01'2 7.4
2018-Jun-16 20:29N 40°42' W 073°59'3 5.5
2018-Jun-16 20:00N 40°41' W 074°02'3 1.0
2018-Jun-16 16:54N 40°42' W 073°59'2 6.2
2018-Jun-16 16:30N 40°42' W 074°02'1 0.1
2018-Jun-16 02:31N 40°43' W 074°01'012.5
2018-Jun-16 02:30N 40°43' W 074°01'2 1.5
2018-Jun-16 01:01N 40°42' W 073°59'013.2
2018-Jun-16 01:00N 40°42' W 073°59'2 4.6
2018-Jun-16 00:31N 40°42' W 074°02'1 0.2
2018-Jun-15 19:26N 40°43' W 074°01'2 1.9
2018-Jun-15 18:22N 40°42' W 073°59'3 6.7
2018-Jun-15 17:58N 40°42' W 074°02'2 0.8
2018-Jun-15 15:53N 40°43' W 074°01'2 2.0
2018-Jun-15 14:52N 40°42' W 073°59'3 7.1
2018-Jun-15 14:30N 40°42' W 074°02'2 0.1
2018-Jun-15 00:44N 40°44' W 074°01'210.6
2018-Jun-15 00:30N 40°41' W 074°02'4 7.2
2018-Jun-14 23:59N 40°43' W 073°58'3 5.6
2018-Jun-14 23:30N 40°42' W 074°01'1 0.5
2018-Jun-14 20:44N 40°43' W 074°01'2 7.4
2018-Jun-14 20:29N 40°43' W 073°59'3 6.2
2018-Jun-14 19:59N 40°41' W 074°03'3 1.4
2018-Jun-14 17:58N 40°44' W 074°01'2 2.2
2018-Jun-14 16:55N 40°43' W 073°58'3 7.3
2018-Jun-14 16:30N 40°42' W 074°02'2 0.1
2018-Jun-13 19:19N 40°44' W 074°01'2 7.1
2018-Jun-13 19:00N 40°41' W 074°02'2 0.7
2018-Jun-13 15:43N 40°44' W 074°01'2 8.4
2018-Jun-13 15:30N 40°42' W 074°00'2 3.5
2018-Jun-13 15:00N 40°44' W 074°01'1 0.0
2018-Jun-12 19:17N 40°43' W 074°01'2 5.5
2018-Jun-12 18:59N 40°42' W 074°02'2 0.5
2018-Jun-12 15:50N 40°43' W 074°01'2 4.5
2018-Jun-12 15:29N 40°42' W 074°01'2 0.1
2018-Jun-12 00:37N 40°43' W 074°02'110.2
2018-Jun-12 00:30N 40°42' W 074°02'1 2.7
2018-Jun-12 00:00N 40°42' W 074°00'1 1.5
2018-Jun-11 23:15N 40°43' W 074°01'0 0.1
2018-Jun-11 20:45N 40°43' W 074°01'1 2.4
2018-Jun-11 20:11N 40°42' W 074°01'1 2.5
2018-Jun-11 19:58N 40°42' W 074°02'1 0.4
2018-Jun-11 17:51N 40°43' W 074°01'  
Track history (hours):
 
Tides and Currents Weather Stations Pressure Air Temp Water Temp Dewpoint Dewpoint Depression Visibility Wind Speed Wind Dir Waves Ship Positions

Circle Line Brooklyn

Owner: Circle Line Sight Seeing Yachts Inc., New York, NY. More information available from US FCC via Universal Licensing System and Coast Guard Vessel Documentation Center.

Last reported at 2018-Jun-21 17:43 UTC. Time now 2018-Jun-21 23:57 UTC.
Position N 40°43' W 074°01'.

Length 47 m; draft 2.1 m.

Type: Passenger vessel. MMSI: 367402250.

Date/timePositionNaut miles runAvg speedWind from/ knotsBaromVisibWave heightAir tempDewpointWater temp
2018-Jun-21 17:43N 40°43' W 074°01'2 7.6
2018-Jun-21 17:29N 40°43' W 073°59'3 6.0
2018-Jun-21 16:59N 40°41' W 074°03'3 1.6
2018-Jun-21 15:17N 40°44' W 074°01'2 5.6
2018-Jun-21 14:56N 40°42' W 074°02'2 0.0
2018-Jun-19 19:20N 40°44' W 074°01'2 7.0
2018-Jun-19 19:00N 40°43' W 073°58'1 1.2
2018-Jun-19 18:19N 40°42' W 073°59'3 8.3
2018-Jun-19 17:59N 40°42' W 074°02'3 0.9
2018-Jun-19 14:46N 40°42' W 073°59'312.9
2018-Jun-19 14:30N 40°41' W 074°03'2 0.2
2018-Jun-19 00:40N 40°43' W 074°02'211.1
2018-Jun-19 00:28N 40°41' W 074°02'3 4.2
2018-Jun-18 23:41N 40°43' W 073°58'211.1
2018-Jun-18 23:30N 40°42' W 074°01'2 0.6
2018-Jun-18 20:45N 40°43' W 074°01'2 9.1
2018-Jun-18 20:30N 40°43' W 073°59'4 7.1
2018-Jun-18 20:00N 40°41' W 074°03'2 1.1
2018-Jun-18 17:54N 40°43' W 074°01'2 2.2
2018-Jun-18 16:51N 40°43' W 073°58'3 9.7
2018-Jun-18 16:30N 40°42' W 074°02'2 0.1
2018-Jun-17 18:18N 40°42' W 074°00'1 5.0
2018-Jun-17 18:01N 40°42' W 074°02'1 0.2
2018-Jun-17 14:41N 40°42' W 074°01'1 3.2
2018-Jun-17 14:28N 40°42' W 074°02'1 0.1
2018-Jun-17 03:19N 40°43' W 074°01'2 4.2
2018-Jun-17 02:56N 40°43' W 073°59'2 4.6
2018-Jun-17 02:30N 40°42' W 074°01'2 4.2
2018-Jun-17 02:00N 40°44' W 074°01'0 0.0
2018-Jun-16 20:45N 40°44' W 074°01'2 7.4
2018-Jun-16 20:29N 40°42' W 073°59'3 5.5
2018-Jun-16 20:00N 40°41' W 074°02'3 1.0
2018-Jun-16 16:54N 40°42' W 073°59'2 6.2
2018-Jun-16 16:30N 40°42' W 074°02'1 0.1
2018-Jun-16 02:31N 40°43' W 074°01'012.5
2018-Jun-16 02:30N 40°43' W 074°01'2 1.5
2018-Jun-16 01:01N 40°42' W 073°59'013.2
2018-Jun-16 01:00N 40°42' W 073°59'2 4.6
2018-Jun-16 00:31N 40°42' W 074°02'1 0.2
2018-Jun-15 19:26N 40°43' W 074°01'2 1.9
2018-Jun-15 18:22N 40°42' W 073°59'3 6.7
2018-Jun-15 17:58N 40°42' W 074°02'2 0.8
2018-Jun-15 15:53N 40°43' W 074°01'2 2.0
2018-Jun-15 14:52N 40°42' W 073°59'3 7.1
2018-Jun-15 14:30N 40°42' W 074°02'2 0.1
2018-Jun-15 00:44N 40°44' W 074°01'210.6
2018-Jun-15 00:30N 40°41' W 074°02'4 7.2
2018-Jun-14 23:59N 40°43' W 073°58'3 5.6
2018-Jun-14 23:30N 40°42' W 074°01'1 0.5
2018-Jun-14 20:44N 40°43' W 074°01'2 7.4
2018-Jun-14 20:29N 40°43' W 073°59'3 6.2
2018-Jun-14 19:59N 40°41' W 074°03'3 1.4
2018-Jun-14 17:58N 40°44' W 074°01'2 2.2
2018-Jun-14 16:55N 40°43' W 073°58'3 7.3
2018-Jun-14 16:30N 40°42' W 074°02'2 0.1
2018-Jun-13 19:19N 40°44' W 074°01'2 7.1
2018-Jun-13 19:00N 40°41' W 074°02'2 0.7
2018-Jun-13 15:43N 40°44' W 074°01'2 8.4
2018-Jun-13 15:30N 40°42' W 074°00'2 3.5
2018-Jun-13 15:00N 40°44' W 074°01'1 0.0
2018-Jun-12 19:17N 40°43' W 074°01'2 5.5
2018-Jun-12 18:59N 40°42' W 074°02'2 0.5
2018-Jun-12 15:50N 40°43' W 074°01'2 4.5
2018-Jun-12 15:29N 40°42' W 074°01'2 0.1
2018-Jun-12 00:37N 40°43' W 074°02'110.2
2018-Jun-12 00:30N 40°42' W 074°02'1 2.7
2018-Jun-12 00:00N 40°42' W 074°00'1 1.5
2018-Jun-11 23:15N 40°43' W 074°01'0 0.1
2018-Jun-11 20:45N 40°43' W 074°01'1 2.4
2018-Jun-11 20:11N 40°42' W 074°01'1 2.5
2018-Jun-11 19:58N 40°42' W 074°02'1 0.4
2018-Jun-11 17:51N 40°43' W 074°01'  

Dump ship's entire track history